WetterOnline ( https://www.wetteronline.de )

Wetter aktuell Freiburg im Breisgau

Aktuelles Wetter: Feldberg/Schwarzwald (1493m)

6-stündlich | Neueste Meldungen
Ortszeit Temperatur Wetter
Sa, 25.06. 2:00 8.4° C bewölkt
Fr, 24.06. 20:00 8.5° C Nebel
Fr, 24.06. 14:00 10.1° C leichter Regen
Fr, 24.06. 8:00 9.9° C Nebel
Fr, 24.06. 2:00 12.1° C bewölkt
Do, 23.06. 20:00 17.6° C bewölkt
Do, 23.06. 14:00 18.8° C wolkig
Do, 23.06. 8:00 12.3° C Nebel
Ortszeit Temperatur Wetter
Sa, 25.06. 3:00 8.3° C Nebel
Sa, 25.06. 2:50 8.3° C Nebel
Sa, 25.06. 2:40 8.3° C Nebel
Sa, 25.06. 2:30 8.2° C Nebel
Sa, 25.06. 2:20 8.2° C Nebel
Sa, 25.06. 2:10 8.3° C Nebel
Sa, 25.06. 2:00 8.4° C bewölkt
Sa, 25.06. 1:30 8.3° C Nebel
Sa, 25.06. 1:00 8.5° C Nebel
Sa, 25.06. 0:30 8.5° C Nebel
Sa, 25.06. 0:00 8.4° C Nebel
Ortszeit Relative Feuchte Sichtweite
Sa, 25.06. 2:00 99% -
Fr, 24.06. 20:00 100% <100 m
Fr, 24.06. 14:00 90% 26 km
Fr, 24.06. 8:00 97% 7 km
Fr, 24.06. 2:00 88% 40 km
Do, 23.06. 20:00 70% 40 km
Do, 23.06. 14:00 61% 50 km
Do, 23.06. 8:00 97% 10 km
Ortszeit Relative Feuchte Sichtweite
Sa, 25.06. 3:00 99% <100 m
Sa, 25.06. 2:50 99% -
Sa, 25.06. 2:40 99% -
Sa, 25.06. 2:30 99% 100 m
Sa, 25.06. 2:20 99% -
Sa, 25.06. 2:10 99% -
Sa, 25.06. 2:00 99% -
Sa, 25.06. 1:30 99% 0.8 km
Sa, 25.06. 1:00 99% 100 m
Sa, 25.06. 0:30 98% 0.7 km
Sa, 25.06. 0:00 99% 100 m
Ortszeit Niederschlagsmenge Niederschlagsart
Sa, 25.06. 2:00 0.1 l/m2 in 6 Std. Nebel
Fr, 24.06. 20:00 4 l/m2 in 12 Std. Regen
Fr, 24.06. 14:00 0.1 l/m2 in 6 Std. Regen
Fr, 24.06. 8:00 41 l/m2 in 12 Std. -
Fr, 24.06. 2:00 41 l/m2 in 6 Std. Regen
Do, 23.06. 20:00 0.0 l/m2 in 12 Std. -
Do, 23.06. 14:00 0.0 l/m2 in 6 Std. -
Do, 23.06. 8:00 1 l/m2 in 12 Std. -
Ortszeit Niederschlagsmenge Niederschlagsart
Sa, 25.06. 3:00 0.0 l/m2 in 1 Std. -
Sa, 25.06. 2:50 keine Meldung -
Sa, 25.06. 2:40 keine Meldung -
Sa, 25.06. 2:30 0.0 l/m2 in 1 Std. -
Sa, 25.06. 2:20 keine Meldung -
Sa, 25.06. 2:10 keine Meldung -
Sa, 25.06. 2:00 0.0 l/m2 in 1 Std. Nebel
Sa, 25.06. 1:30 0.0 l/m2 in 1 Std. -
Sa, 25.06. 1:00 0.0 l/m2 in 1 Std. -
Sa, 25.06. 0:30 0.0 l/m2 in 1 Std. -
Sa, 25.06. 0:00 0.1 l/m2 in 1 Std. -
Ortszeit Stärke Spitze Richtung
km/h Bft. km/h Grad Sektor
Sa, 25.06. 2:00 33 5 57 220° SW
Fr, 24.06. 20:00 41 6 72 250° W
Fr, 24.06. 14:00 25 4 54 260° W
Fr, 24.06. 8:00 41 6 67 220° SW
Fr, 24.06. 2:00 37 5 81 240° SW
Do, 23.06. 20:00 13 3 31 330° NW
Do, 23.06. 14:00 7 2 29 180° S
Do, 23.06. 8:00 22 4 43 190° S
Ortszeit Stärke Spitze Richtung
km/h Bft. km/h Grad Sektor
Sa, 25.06. 3:00 33 5 46 240° SW
Sa, 25.06. 2:50 33 5 - 240° SW
Sa, 25.06. 2:40 37 5 - 240° SW
Sa, 25.06. 2:30 37 5 44 230° SW
Sa, 25.06. 2:20 37 5 - 230° SW
Sa, 25.06. 2:10 37 5 - 230° SW
Sa, 25.06. 2:00 33 5 48 220° SW
Sa, 25.06. 1:30 39 6 48 230° SW
Sa, 25.06. 1:00 40 6 50 220° SW
Sa, 25.06. 0:30 41 6 50 230° SW
Sa, 25.06. 0:00 40 6 58 230° SW
Ortszeit Untergrenze Bedeckung Gattung
total tief tief mittel hoch
Sa, 25.06. 2:00 <30 m 7/8 0/8 - - -
Fr, 24.06. 20:00 <30 m 8/8 0/8 - - -
Fr, 24.06. 14:00 180 m 7/8 7/8 - - -
Fr, 24.06. 8:00 <30 m 7/8 0/8 - - -
Fr, 24.06. 2:00 450 m 7/8 6/8 - - -
Do, 23.06. 20:00 1500 m 8/8 5/8 - - -
Do, 23.06. 14:00 720 m 5/8 5/8 - - -
Do, 23.06. 8:00 30 m 6/8 6/8 - - -
Ortszeit Bedeckungsgrad in Achtel und Wolkenuntergrenze
Sa, 25.06. 3:00 7(<30m)
Sa, 25.06. 2:50 7(<30m)
Sa, 25.06. 2:40 7
Sa, 25.06. 2:30 8(<30m)
Sa, 25.06. 2:20 8(<30m)
Sa, 25.06. 2:10 7
Sa, 25.06. 2:00 7(<30m)
Sa, 25.06. 1:30 7(<30m)
Sa, 25.06. 1:00 7(<30m)
Sa, 25.06. 0:30 5(<30m)
Sa, 25.06. 0:00 7(<30m) 7(1500m)
Ortszeit Stationsdruck (hPa) Tendenz (hPa in 3 Std.)
Sa, 25.06. 2:00 850 + 0,5
Fr, 24.06. 20:00 848 + 0,4
Fr, 24.06. 14:00 847 0,0
Fr, 24.06. 8:00 847 - 0,7
Fr, 24.06. 2:00 849 + 0,6
Do, 23.06. 20:00 849 - 0,5
Do, 23.06. 14:00 851 - 0,3
Do, 23.06. 8:00 851 + 0,3
Ortszeit Stationsdruck (hPa) Tendenz (hPa in 3 Std.)
Sa, 25.06. 3:00 850 + 0,5
Sa, 25.06. 2:50 850 keine Meldung
Sa, 25.06. 2:40 850 keine Meldung
Sa, 25.06. 2:30 850 + 0,5
Sa, 25.06. 2:20 850 keine Meldung
Sa, 25.06. 2:10 850 keine Meldung
Sa, 25.06. 2:00 850 + 0,5
Sa, 25.06. 1:30 850 + 0,5
Sa, 25.06. 1:00 850 + 0,5
Sa, 25.06. 0:30 850 + 1,1
Sa, 25.06. 0:00 850 + 1,2
Ortszeit Schneehöhe (cm)
Sa, 25.06. 2:00 0
Fr, 24.06. 20:00 0
Fr, 24.06. 14:00 0
Fr, 24.06. 8:00 0
Fr, 24.06. 2:00 0
Do, 23.06. 20:00 0
Do, 23.06. 14:00 0
Do, 23.06. 8:00 0
Ortszeit Schneehöhe (cm)
Sa, 25.06. 3:00 0
Sa, 25.06. 2:50 0
Sa, 25.06. 2:40 0
Sa, 25.06. 2:30 0
Sa, 25.06. 2:20 0
Sa, 25.06. 2:10 0
Sa, 25.06. 2:00 0
Sa, 25.06. 1:30 0
Sa, 25.06. 1:00 0
Sa, 25.06. 0:30 0
Sa, 25.06. 0:00 0
Link zu dieser Seite / Seite empfehlen

Das Wetter in ...